createdAt,value
2019-04-28T00:00:41.138Z,10.76
2019-04-28T00:03:10.857Z,10.70
2019-04-28T00:05:41.501Z,10.69
2019-04-28T00:08:11.103Z,10.81
2019-04-28T00:10:41.832Z,10.60
2019-04-28T00:13:11.592Z,10.75
2019-04-28T00:15:41.699Z,10.93
2019-04-28T00:18:11.926Z,11.01
2019-04-28T00:20:54.834Z,11.06
2019-04-28T00:23:31.839Z,11.12
2019-04-28T00:26:05.636Z,11.19
2019-04-28T00:28:35.068Z,11.21
2019-04-28T00:31:04.722Z,11.22
2019-04-28T00:33:34.147Z,11.28
2019-04-28T00:36:03.658Z,11.34
2019-04-28T00:38:33.098Z,11.30
2019-04-28T00:41:02.541Z,11.32
2019-04-28T00:43:31.970Z,11.25
2019-04-28T00:46:02.388Z,11.26
2019-04-28T00:48:31.811Z,11.12
2019-04-28T00:51:01.807Z,11.18
2019-04-28T00:53:31.431Z,11.17
2019-04-28T00:56:02.192Z,11.06
2019-04-28T00:58:31.953Z,10.96
2019-04-28T01:01:18.608Z,11.01
2019-04-28T01:03:48.231Z,11.01
2019-04-28T01:06:17.672Z,10.89
2019-04-28T01:08:47.103Z,10.90
2019-04-28T01:11:16.535Z,10.93
2019-04-28T01:13:46.009Z,11.00
2019-04-28T01:16:32.890Z,10.94
2019-04-28T01:19:03.978Z,10.97
2019-04-28T01:21:37.991Z,10.72
2019-04-28T01:24:07.432Z,10.91
2019-04-28T01:26:36.953Z,10.88
2019-04-28T01:29:06.374Z,10.86
2019-04-28T01:31:39.925Z,10.81
2019-04-28T01:34:20.533Z,10.87
2019-04-28T01:36:51.585Z,10.91
2019-04-28T01:39:21.247Z,11.03
2019-04-28T01:41:50.689Z,11.03
2019-04-28T01:44:20.113Z,11.02
2019-04-28T01:46:49.756Z,11.02
2019-04-28T01:49:19.682Z,11.11
2019-04-28T01:52:01.276Z,11.02
2019-04-28T01:54:30.817Z,10.96
2019-04-28T01:57:01.409Z,11.03
2019-04-28T01:59:31.062Z,11.00
2019-04-28T02:02:00.490Z,10.86
2019-04-28T02:04:32.438Z,11.02
2019-04-28T02:07:01.089Z,11.08
2019-04-28T02:09:30.516Z,11.02
2019-04-28T02:12:00.786Z,11.13
2019-04-28T02:14:30.819Z,11.15
2019-04-28T02:17:00.633Z,11.21
2019-04-28T02:19:30.563Z,11.20
2019-04-28T02:22:20.159Z,11.20
2019-04-28T02:24:50.490Z,11.20
2019-04-28T02:27:20.414Z,11.14
2019-04-28T02:29:50.088Z,11.23
2019-04-28T02:32:21.290Z,11.17
2019-04-28T02:34:50.918Z,11.13
2019-04-28T02:37:20.810Z,11.07
2019-04-28T02:39:50.683Z,11.19
2019-04-28T02:42:20.816Z,11.15
2019-04-28T02:44:51.012Z,11.16
2019-04-28T02:47:22.035Z,11.22
2019-04-28T02:50:08.339Z,11.24
2019-04-28T02:52:45.072Z,11.24
2019-04-28T02:55:14.494Z,11.22
2019-04-28T02:57:43.944Z,11.23
2019-04-28T03:00:13.717Z,11.13
2019-04-28T03:02:43.247Z,11.14
2019-04-28T03:05:12.794Z,11.03
2019-04-28T03:07:42.224Z,10.92
2019-04-28T03:10:11.743Z,10.87
2019-04-28T03:12:41.658Z,10.88
2019-04-28T03:15:11.686Z,10.75
2019-04-28T03:17:41.180Z,10.81
2019-04-28T03:20:11.140Z,10.78
2019-04-28T03:22:41.104Z,10.80
2019-04-28T03:25:12.362Z,10.82
2019-04-28T03:27:51.954Z,10.79
2019-04-28T03:30:43.463Z,10.91
2019-04-28T03:33:18.815Z,10.86
2019-04-28T03:35:45.603Z,10.79
2019-04-28T03:38:15.033Z,10.86
2019-04-28T03:40:44.472Z,10.83
2019-04-28T03:43:14.671Z,10.80
2019-04-28T03:45:50.330Z,10.85
2019-04-28T03:48:21.081Z,10.91
2019-04-28T03:50:51.402Z,10.94
2019-04-28T03:53:20.905Z,10.96
2019-04-28T03:55:51.293Z,10.96
2019-04-28T03:58:23.669Z,10.95
2019-04-28T04:00:52.099Z,10.90
2019-04-28T04:03:21.542Z,10.83
2019-04-28T04:05:51.215Z,10.93
2019-04-28T04:08:21.146Z,10.93
2019-04-28T04:10:52.246Z,10.86
2019-04-28T04:13:41.563Z,10.83
2019-04-28T04:16:10.429Z,10.83
2019-04-28T04:18:40.735Z,10.86
2019-04-28T04:21:11.246Z,10.86
2019-04-28T04:23:41.375Z,10.88
2019-04-28T04:26:11.625Z,10.93
2019-04-28T04:28:41.902Z,10.91
2019-04-28T04:31:11.446Z,10.95
2019-04-28T04:33:41.354Z,10.95
2019-04-28T04:36:11.947Z,10.97
2019-04-28T04:38:45.954Z,10.91
2019-04-28T04:41:12.701Z,10.95
2019-04-28T04:43:42.129Z,10.90
2019-04-28T04:46:15.963Z,10.81
2019-04-28T04:48:45.509Z,10.95
2019-04-28T04:51:15.085Z,10.96
2019-04-28T04:53:44.578Z,10.90
2019-04-28T04:56:14.023Z,11.00
2019-04-28T04:58:43.449Z,11.07
2019-04-28T05:01:21.476Z,11.10
2019-04-28T05:03:55.022Z,11.03
2019-04-28T05:06:41.222Z,11.10
2019-04-28T05:09:11.969Z,11.14
2019-04-28T05:11:41.468Z,11.24
2019-04-28T05:14:12.039Z,11.18
2019-04-28T05:16:41.623Z,11.18
2019-04-28T05:19:11.071Z,11.21
2019-04-28T05:21:40.631Z,11.20
2019-04-28T05:24:17.615Z,11.30
2019-04-28T05:26:49.777Z,11.22
2019-04-28T05:29:26.426Z,11.23
2019-04-28T05:31:54.755Z,11.27
2019-04-28T05:34:24.071Z,11.32
2019-04-28T05:36:53.551Z,11.39
2019-04-28T05:39:22.981Z,11.35
2019-04-28T05:41:52.422Z,11.40
2019-04-28T05:44:21.853Z,11.39
2019-04-28T05:46:51.278Z,11.30
2019-04-28T05:49:32.109Z,11.43
2019-04-28T05:52:20.017Z,11.49
2019-04-28T05:54:51.067Z,11.45
2019-04-28T05:57:22.131Z,11.50
2019-04-28T05:59:53.777Z,11.61
2019-04-28T06:02:31.505Z,11.60
2019-04-28T06:05:00.949Z,11.45
2019-04-28T06:07:37.656Z,11.59
2019-04-28T06:10:07.730Z,11.48
2019-04-28T06:12:37.174Z,11.56
2019-04-28T06:15:11.708Z,11.58
2019-04-28T06:17:39.763Z,11.51
2019-04-28T06:20:11.424Z,11.55
2019-04-28T06:22:40.565Z,11.66
2019-04-28T06:25:10.000Z,11.74
2019-04-28T06:27:39.421Z,11.71
2019-04-28T06:30:09.680Z,11.66
2019-04-28T06:32:39.109Z,11.58
2019-04-28T06:35:08.730Z,11.64
2019-04-28T06:37:38.370Z,11.63
2019-04-28T06:40:08.339Z,11.31
2019-04-28T06:42:37.782Z,11.36
2019-04-28T06:45:07.697Z,11.56
2019-04-28T06:47:37.127Z,11.63
2019-04-28T06:50:07.103Z,11.79
2019-04-28T06:52:36.536Z,11.88
2019-04-28T06:55:07.104Z,11.98
2019-04-28T06:57:36.542Z,12.06
2019-04-28T07:00:07.198Z,12.17
2019-04-28T07:02:36.628Z,11.85
2019-04-28T07:05:07.672Z,11.64
2019-04-28T07:07:37.095Z,12.00
2019-04-28T07:10:08.077Z,12.09
2019-04-28T07:12:37.520Z,12.19
2019-04-28T07:15:07.184Z,12.06
2019-04-28T07:17:36.699Z,12.19
2019-04-28T07:20:20.876Z,12.19
2019-04-28T07:22:53.309Z,12.10
2019-04-28T07:25:22.770Z,12.15
2019-04-28T07:27:52.219Z,12.31
2019-04-28T07:30:21.825Z,12.14
2019-04-28T07:32:52.904Z,12.12
2019-04-28T07:35:22.353Z,11.99
2019-04-28T07:37:51.794Z,11.90
2019-04-28T07:40:21.212Z,12.23
2019-04-28T07:42:50.657Z,12.29
2019-04-28T07:45:20.086Z,12.39
2019-04-28T07:47:49.509Z,12.43
2019-04-28T07:50:18.950Z,12.48
2019-04-28T07:52:50.034Z,12.63
2019-04-28T07:55:19.458Z,12.48
2019-04-28T07:57:48.903Z,12.45
2019-04-28T08:00:20.202Z,12.54
2019-04-28T08:02:49.632Z,12.62
2019-04-28T08:05:19.075Z,12.38
2019-04-28T08:07:48.504Z,12.45
2019-04-28T08:10:17.935Z,12.62
2019-04-28T08:12:49.187Z,12.74
2019-04-28T08:15:18.682Z,12.99
2019-04-28T08:17:48.116Z,13.29
2019-04-28T08:20:17.708Z,13.65
2019-04-28T08:22:47.139Z,13.54
2019-04-28T08:25:16.580Z,13.83
2019-04-28T08:27:46.015Z,14.23
2019-04-28T08:30:15.583Z,14.37
2019-04-28T08:32:52.616Z,14.28
2019-04-28T08:35:22.114Z,14.35
2019-04-28T08:37:51.566Z,14.17
2019-04-28T08:40:21.113Z,14.19
2019-04-28T08:42:50.621Z,14.28
2019-04-28T08:45:20.063Z,14.37
2019-04-28T08:47:49.531Z,14.57
2019-04-28T08:50:19.043Z,14.58
2019-04-28T08:52:48.480Z,14.21
2019-04-28T08:55:17.911Z,14.68
2019-04-28T08:57:47.397Z,14.59
2019-04-28T09:00:17.932Z,14.54
2019-04-28T09:02:47.379Z,14.40
2019-04-28T09:05:16.886Z,14.58
2019-04-28T09:07:46.599Z,14.63
2019-04-28T09:10:16.119Z,14.51
2019-04-28T09:12:45.566Z,14.55
2019-04-28T09:15:15.149Z,14.49
2019-04-28T09:17:44.617Z,14.37
2019-04-28T09:20:14.274Z,14.27
2019-04-28T09:22:43.715Z,14.36
2019-04-28T09:25:13.448Z,14.71
2019-04-28T09:27:42.892Z,14.90
2019-04-28T09:30:12.764Z,14.94
2019-04-28T09:32:42.221Z,15.03
2019-04-28T09:35:11.806Z,14.94
2019-04-28T09:37:41.258Z,15.43
2019-04-28T09:40:14.576Z,15.90
2019-04-28T09:42:57.626Z,15.92
2019-04-28T09:45:28.742Z,16.05
2019-04-28T09:47:58.190Z,16.15
2019-04-28T09:50:27.620Z,15.99
2019-04-28T09:52:57.067Z,16.20
2019-04-28T09:55:26.505Z,16.86
2019-04-28T09:57:55.936Z,16.96
2019-04-28T10:00:25.451Z,17.34
2019-04-28T10:02:54.885Z,16.98
2019-04-28T10:05:24.332Z,17.12
2019-04-28T10:07:53.770Z,17.09
2019-04-28T10:10:23.271Z,16.98
2019-04-28T10:12:52.702Z,16.53
2019-04-28T10:15:22.214Z,17.05
2019-04-28T10:17:51.653Z,17.31
2019-04-28T10:20:22.043Z,17.20
2019-04-28T10:22:51.494Z,17.73
2019-04-28T10:25:21.260Z,17.95
2019-04-28T10:27:50.743Z,18.31
2019-04-28T10:30:20.411Z,17.75
2019-04-28T10:32:49.850Z,18.04
2019-04-28T10:35:19.429Z,17.91
2019-04-28T10:37:48.878Z,17.60
2019-04-28T10:40:40.569Z,16.93
2019-04-28T10:43:10.169Z,16.52
2019-04-28T10:45:46.697Z,16.03
2019-04-28T10:48:16.570Z,15.36
2019-04-28T10:50:46.071Z,15.42
2019-04-28T10:53:15.521Z,15.12
2019-04-28T10:55:44.954Z,15.14
2019-04-28T10:58:14.399Z,15.11
2019-04-28T11:00:43.853Z,14.77
2019-04-28T11:03:13.287Z,15.30
2019-04-28T11:05:43.959Z,15.57
2019-04-28T11:08:24.234Z,15.86
2019-04-28T11:10:54.114Z,16.13
2019-04-28T11:13:23.576Z,16.48
2019-04-28T11:15:53.010Z,16.78
2019-04-28T11:18:22.447Z,16.79
2019-04-28T11:20:51.893Z,16.70
2019-04-28T11:23:23.231Z,16.84
2019-04-28T11:25:52.480Z,16.45
2019-04-28T11:28:21.924Z,15.87
2019-04-28T11:30:51.359Z,16.63
2019-04-28T11:33:22.507Z,17.07
2019-04-28T11:35:52.630Z,16.38
2019-04-28T11:38:22.109Z,15.54
2019-04-28T11:40:51.629Z,15.21
2019-04-28T11:43:21.065Z,14.94
2019-04-28T11:45:50.556Z,15.49
2019-04-28T11:48:20.071Z,15.14
2019-04-28T11:50:49.520Z,15.01
2019-04-28T11:53:18.951Z,15.55
2019-04-28T11:55:48.411Z,16.34
2019-04-28T11:58:17.924Z,16.42
2019-04-28T12:00:47.371Z,15.40
2019-04-28T12:03:16.797Z,15.66
2019-04-28T12:05:47.663Z,15.54
2019-04-28T12:08:17.091Z,15.29
2019-04-28T12:10:46.467Z,14.80
2019-04-28T12:13:17.570Z,14.19
2019-04-28T12:15:49.206Z,14.81
2019-04-28T12:18:24.059Z,14.78
2019-04-28T12:20:53.559Z,14.97
2019-04-28T12:23:23.154Z,15.02
2019-04-28T12:25:52.609Z,15.27
2019-04-28T12:28:22.038Z,15.53
2019-04-28T12:30:51.492Z,15.58
2019-04-28T12:33:20.919Z,15.66
2019-04-28T12:35:50.366Z,15.94
2019-04-28T12:38:19.803Z,16.16
2019-04-28T12:40:49.237Z,16.63
2019-04-28T12:43:18.677Z,17.41
2019-04-28T12:45:48.399Z,17.37
2019-04-28T12:48:17.831Z,17.54
2019-04-28T12:50:51.588Z,17.53
2019-04-28T12:53:21.797Z,17.42
2019-04-28T12:55:51.225Z,17.25
2019-04-28T12:58:20.691Z,17.39
2019-04-28T13:00:49.878Z,17.42
2019-04-28T13:03:23.363Z,17.24
2019-04-28T13:06:02.622Z,17.53
2019-04-28T13:08:28.481Z,17.90
2019-04-28T13:10:57.913Z,17.61
2019-04-28T13:13:27.360Z,16.90
2019-04-28T13:15:56.863Z,17.31
2019-04-28T13:18:26.296Z,17.13
2019-04-28T13:20:55.746Z,16.70
2019-04-28T13:23:25.177Z,16.71
2019-04-28T13:25:54.617Z,16.52
2019-04-28T13:28:24.071Z,16.18
2019-04-28T13:30:53.515Z,16.16
2019-04-28T13:33:22.927Z,16.13
2019-04-28T13:35:52.447Z,15.87
2019-04-28T13:38:21.915Z,16.34
2019-04-28T13:40:51.333Z,16.92
2019-04-28T13:43:20.777Z,16.60
2019-04-28T13:45:50.226Z,15.92
2019-04-28T13:48:19.681Z,15.79
2019-04-28T13:50:49.320Z,15.72
2019-04-28T13:53:18.825Z,15.38
2019-04-28T13:55:48.027Z,15.70
2019-04-28T13:58:21.522Z,15.63
2019-04-28T14:00:52.591Z,15.84
2019-04-28T14:03:21.818Z,16.24
2019-04-28T14:06:01.583Z,16.62
2019-04-28T14:08:31.063Z,16.63
2019-04-28T14:11:00.437Z,16.78
2019-04-28T14:13:29.883Z,17.10
2019-04-28T14:15:59.327Z,17.37
2019-04-28T14:18:28.758Z,17.78
2019-04-28T14:20:58.328Z,17.96
2019-04-28T14:23:27.780Z,18.01
2019-04-28T14:25:57.321Z,18.62
2019-04-28T14:28:26.765Z,18.37
2019-04-28T14:30:56.188Z,17.33
2019-04-28T14:33:25.640Z,17.85
2019-04-28T14:35:55.107Z,18.12
2019-04-28T14:38:24.684Z,20.36
2019-04-28T14:40:54.138Z,21.28
2019-04-28T14:43:23.626Z,21.52
2019-04-28T14:45:53.022Z,22.11
2019-04-28T14:48:22.456Z,24.09
2019-04-28T14:50:51.903Z,24.27
2019-04-28T14:53:21.381Z,23.31
2019-04-28T14:55:50.842Z,23.90
2019-04-28T14:58:20.294Z,24.55
2019-04-28T15:01:03.313Z,25.13
2019-04-28T15:03:34.358Z,23.74
2019-04-28T15:06:03.633Z,23.88
2019-04-28T15:08:43.480Z,24.56
2019-04-28T15:11:14.505Z,25.86
2019-04-28T15:13:43.957Z,26.97
2019-04-28T15:16:13.415Z,26.42
2019-04-28T15:18:42.846Z,27.61
2019-04-28T15:21:12.260Z,28.28
2019-04-28T15:23:41.734Z,28.15
2019-04-28T15:26:11.161Z,27.85
2019-04-28T15:28:40.610Z,27.35
2019-04-28T15:31:10.047Z,27.35
2019-04-28T15:33:39.488Z,27.76
2019-04-28T15:36:09.159Z,28.01
2019-04-28T15:38:38.608Z,27.04
2019-04-28T15:41:20.925Z,26.77
2019-04-28T15:43:39.619Z,24.90
2019-04-28T15:46:09.049Z,24.77
2019-04-28T15:48:38.480Z,25.41
2019-04-28T15:51:07.930Z,25.99
2019-04-28T15:53:38.232Z,26.40
2019-04-28T15:56:21.108Z,27.05
2019-04-28T15:58:50.545Z,28.02
2019-04-28T16:01:20.828Z,28.64
2019-04-28T16:03:50.266Z,29.03
2019-04-28T16:06:19.698Z,28.84
2019-04-28T16:08:49.129Z,28.98
2019-04-28T16:11:18.573Z,29.08
2019-04-28T16:13:48.021Z,26.17
2019-04-28T16:16:17.462Z,24.47
2019-04-28T16:18:47.192Z,23.61
2019-04-28T16:21:16.623Z,22.82
2019-04-28T16:23:46.054Z,22.11
2019-04-28T16:26:15.509Z,21.42
2019-04-28T16:28:44.961Z,20.68
2019-04-28T16:31:14.388Z,19.83
2019-04-28T16:33:43.819Z,20.13
2019-04-28T16:36:13.270Z,20.11
2019-04-28T16:38:42.694Z,19.68
2019-04-28T16:41:20.240Z,19.14
2019-04-28T16:43:50.347Z,19.07
2019-04-28T16:46:19.958Z,18.70
2019-04-28T16:48:49.401Z,18.44
2019-04-28T16:51:18.834Z,18.70
2019-04-28T16:53:48.279Z,18.62
2019-04-28T16:56:19.371Z,17.99
2019-04-28T16:59:05.383Z,17.79
2019-04-28T17:01:38.944Z,17.66
2019-04-28T17:04:08.396Z,17.54
2019-04-28T17:06:37.909Z,17.26
2019-04-28T17:09:08.450Z,17.15
2019-04-28T17:11:37.898Z,17.14
2019-04-28T17:14:07.333Z,16.91
2019-04-28T17:16:36.791Z,16.96
2019-04-28T17:19:06.275Z,16.92
2019-04-28T17:21:35.773Z,16.90
2019-04-28T17:24:05.311Z,16.81
2019-04-28T17:26:34.754Z,16.79
2019-04-28T17:29:04.380Z,16.63
2019-04-28T17:31:33.993Z,16.82
2019-04-28T17:34:03.426Z,17.27
2019-04-28T17:36:32.931Z,18.21
2019-04-28T17:39:02.378Z,19.31
2019-04-28T17:41:32.168Z,20.64
2019-04-28T17:44:01.612Z,21.35
2019-04-28T17:46:31.044Z,21.89
2019-04-28T17:49:01.066Z,22.62
2019-04-28T17:51:30.570Z,22.92
2019-04-28T17:53:59.999Z,23.26
2019-04-28T17:56:29.450Z,22.89
2019-04-28T17:58:58.899Z,21.85
2019-04-28T18:01:32.674Z,20.50
2019-04-28T18:04:06.716Z,18.70
2019-04-28T18:06:38.185Z,17.98
2019-04-28T18:09:08.946Z,17.58
2019-04-28T18:11:38.552Z,17.06
2019-04-28T18:14:08.026Z,16.38
2019-04-28T18:16:47.854Z,16.01
2019-04-28T18:19:18.947Z,15.63
2019-04-28T18:21:48.385Z,15.37
2019-04-28T18:24:17.898Z,15.01
2019-04-28T18:26:47.347Z,14.79
2019-04-28T18:29:16.778Z,14.58
2019-04-28T18:32:03.707Z,14.41
2019-04-28T18:34:34.778Z,14.32
2019-04-28T18:37:22.180Z,14.17
2019-04-28T18:40:05.355Z,14.05
2019-04-28T18:42:40.281Z,13.85
2019-04-28T18:45:10.872Z,13.68
2019-04-28T18:47:40.304Z,13.53
2019-04-28T18:50:10.262Z,13.44
2019-04-28T18:52:39.758Z,13.32
2019-04-28T18:55:09.304Z,13.24
2019-04-28T18:57:38.788Z,13.04
2019-04-28T19:00:09.560Z,12.97
2019-04-28T19:02:48.733Z,12.92
2019-04-28T19:05:18.936Z,12.61
2019-04-28T19:07:50.015Z,12.51
2019-04-28T19:10:19.211Z,12.42
2019-04-28T19:12:58.734Z,12.33
2019-04-28T19:15:36.881Z,12.17
2019-04-28T19:18:10.919Z,12.00
2019-04-28T19:20:40.348Z,11.98
2019-04-28T19:23:09.795Z,11.88
2019-04-28T19:25:39.231Z,11.57
2019-04-28T19:28:08.660Z,11.60
2019-04-28T19:30:38.111Z,11.52
2019-04-28T19:33:07.543Z,11.39
2019-04-28T19:35:36.963Z,11.33
2019-04-28T19:38:06.418Z,11.09
2019-04-28T19:40:35.916Z,10.94
2019-04-28T19:43:05.347Z,10.79
2019-04-28T19:45:36.426Z,10.85
2019-04-28T19:48:05.941Z,10.88
2019-04-28T19:50:35.379Z,10.49
2019-04-28T19:53:04.875Z,10.32
2019-04-28T19:55:35.954Z,10.38
2019-04-28T19:58:05.234Z,10.46
2019-04-28T20:00:36.391Z,10.53
2019-04-28T20:03:05.824Z,10.44
2019-04-28T20:05:35.265Z,10.38
2019-04-28T20:08:04.783Z,10.50
2019-04-28T20:10:34.214Z,10.40
2019-04-28T20:13:03.646Z,10.43
2019-04-28T20:15:33.090Z,10.32
2019-04-28T20:18:02.528Z,10.29
2019-04-28T20:20:31.974Z,10.25
2019-04-28T20:23:01.405Z,9.98
2019-04-28T20:25:30.832Z,9.95
2019-04-28T20:28:00.266Z,9.98
2019-04-28T20:30:29.710Z,10.05
2019-04-28T20:33:06.858Z,10.07
2019-04-28T20:35:32.006Z,10.06
2019-04-28T20:38:17.699Z,9.95
2019-04-28T20:40:57.459Z,9.89
2019-04-28T20:43:27.964Z,9.79
2019-04-28T20:45:57.644Z,9.63
2019-04-28T20:48:27.086Z,9.59
2019-04-28T20:50:56.510Z,9.56
2019-04-28T20:53:25.936Z,9.49
2019-04-28T20:55:55.374Z,9.39
2019-04-28T20:58:24.815Z,9.40
2019-04-28T21:00:54.238Z,9.36
2019-04-28T21:03:23.666Z,9.31
2019-04-28T21:05:53.117Z,9.29
2019-04-28T21:08:22.547Z,9.31
2019-04-28T21:10:51.987Z,9.30
2019-04-28T21:13:21.409Z,9.23
2019-04-28T21:15:50.834Z,9.06
2019-04-28T21:18:20.276Z,9.03
2019-04-28T21:20:49.934Z,9.03
2019-04-28T21:23:19.382Z,9.00
2019-04-28T21:25:48.836Z,9.01
2019-04-28T21:28:18.252Z,8.92
2019-04-28T21:30:47.752Z,8.94
2019-04-28T21:33:17.186Z,8.83
2019-04-28T21:35:46.611Z,8.73
2019-04-28T21:38:16.051Z,8.73
2019-04-28T21:40:45.478Z,8.77
2019-04-28T21:43:20.500Z,8.74
2019-04-28T21:45:52.087Z,8.61
2019-04-28T21:48:38.756Z,8.57
2019-04-28T21:51:11.672Z,8.44
2019-04-28T21:53:39.582Z,8.36
2019-04-28T21:56:09.035Z,8.35
2019-04-28T21:58:38.464Z,8.33
2019-04-28T22:01:09.116Z,8.45
2019-04-28T22:03:38.607Z,8.38
2019-04-28T22:06:08.048Z,8.30
2019-04-28T22:08:37.486Z,8.22
2019-04-28T22:11:07.046Z,8.15
2019-04-28T22:13:36.484Z,8.11
2019-04-28T22:16:06.073Z,8.08
2019-04-28T22:18:35.500Z,8.08
2019-04-28T22:21:05.022Z,8.04
2019-04-28T22:23:52.010Z,8.06
2019-04-28T22:26:38.565Z,7.96
2019-04-28T22:29:08.002Z,7.85
2019-04-28T22:31:37.431Z,7.67
2019-04-28T22:34:06.946Z,7.69
2019-04-28T22:36:36.438Z,7.73
2019-04-28T22:39:07.906Z,7.68
2019-04-28T22:41:37.621Z,7.65
2019-04-28T22:44:07.488Z,7.72
2019-04-28T22:46:36.995Z,7.73
2019-04-28T22:49:06.945Z,7.69
2019-04-28T22:51:36.520Z,7.64
2019-04-28T22:54:07.836Z,7.70
2019-04-28T22:56:38.920Z,7.78
2019-04-28T22:59:10.070Z,7.79
2019-04-28T23:01:47.158Z,7.69
2019-04-28T23:04:19.193Z,7.61
2019-04-28T23:06:48.811Z,7.57
2019-04-28T23:09:20.070Z,7.62
2019-04-28T23:11:49.566Z,7.57
2019-04-28T23:14:19.009Z,7.50
2019-04-28T23:16:48.438Z,7.43
2019-04-28T23:19:19.514Z,7.48
2019-04-28T23:22:06.459Z,7.49
2019-04-28T23:24:35.901Z,7.54
2019-04-28T23:27:05.408Z,7.32
2019-04-28T23:29:34.847Z,7.31
2019-04-28T23:32:04.724Z,7.18
2019-04-28T23:34:34.236Z,7.20
2019-04-28T23:37:03.670Z,7.11
2019-04-28T23:39:33.103Z,7.08
2019-04-28T23:42:04.195Z,7.10
2019-04-28T23:44:33.634Z,7.23
2019-04-28T23:47:04.449Z,7.22
2019-04-28T23:49:33.883Z,7.22
2019-04-28T23:52:10.364Z,7.17
2019-04-28T23:54:41.436Z,7.09
2019-04-28T23:57:11.131Z,7.03
2019-04-28T23:59:40.581Z,7.02
